Time;durP1;ratioP1;P1;durP2;ratioP2;P2;SDS_P1;SDS_P2;PMS_P1;PMS_P2;Temp;Humidity;BMP_temperature;BMP_pressure;BME280_temperature;BME280_humidity;BME280_pressure;Samples;Min_cycle;Max_cycle;Signal;HPM_P1;HPM_P2
2022/05/23 00:00:10;;;;;;;1.75;0.70;;;;;;;;;;7391622;19;20002;-78
2022/05/23 00:02:36;;;;;;;1.45;0.93;;;;;;;;;;7386238;19;20021;-78
2022/05/23 00:05:01;;;;;;;1.38;0.70;;;;;;;;;;7388272;19;20007;-78
2022/05/23 00:07:30;;;;;;;2.10;0.70;;;;;;;;;;7389949;19;19998;-77
2022/05/23 00:09:56;;;;;;;4.43;0.70;;;;;;;;;;7390744;19;20053;-76
2022/05/23 00:12:22;;;;;;;0.68;0.68;;;;;;;;;;7387947;19;20006;-78
2022/05/23 00:14:49;;;;;;;1.15;0.73;;;;;;;;;;7390091;19;20020;-77
2022/05/23 00:17:15;;;;;;;1.23;0.63;;;;;;;;;;7388762;19;20010;-77
2022/05/23 00:19:41;;;;;;;3.85;0.75;;;;;;;;;;7386848;19;20032;-78
2022/05/23 00:22:06;;;;;;;1.45;0.63;;;;;;;;;;7386751;19;20779;-77
2022/05/23 00:24:32;;;;;;;2.80;0.60;;;;;;;;;;7388493;19;20035;-78
2022/05/23 00:26:57;;;;;;;1.05;0.68;;;;;;;;;;7389144;19;20027;-78
2022/05/23 00:29:23;;;;;;;1.50;0.90;;;;;;;;;;7391398;19;20344;-76
2022/05/23 00:37:18;;;;;;;0.85;0.52;;;;;;;;;;7388973;19;20472;-78
2022/05/23 00:39:44;;;;;;;0.80;0.70;;;;;;;;;;7388650;19;20019;-77
2022/05/23 00:44:57;;;;;;;3.28;0.77;;;;;;;;;;7389011;19;20026;-77
2022/05/23 00:47:25;;;;;;;1.20;0.60;;;;;;;;;;7388861;19;20002;-77
2022/05/23 00:49:51;;;;;;;2.30;0.70;;;;;;;;;;7388823;19;20560;-77
2022/05/23 00:52:32;;;;;;;1.92;0.50;;;;;;;;;;7386333;19;20007;-77
2022/05/23 00:54:59;;;;;;;0.82;0.47;;;;;;;;;;7386454;19;20014;-77
2022/05/23 00:57:31;;;;;;;1.90;0.60;;;;;;;;;;7389500;19;20006;-78
2022/05/23 00:59:57;;;;;;;1.42;0.80;;;;;;;;;;7386937;19;20586;-77
2022/05/23 01:02:23;;;;;;;3.42;0.80;;;;;;;;;;7388282;19;20366;-77
2022/05/23 01:04:49;;;;;;;1.63;0.70;;;;;;;;;;7385455;19;20007;-77
2022/05/23 01:07:15;;;;;;;1.00;0.80;;;;;;;;;;7388965;19;20010;-77
2022/05/23 01:09:40;;;;;;;0.80;0.70;;;;;;;;;;7388578;19;20014;-77
2022/05/23 01:12:06;;;;;;;1.20;0.65;;;;;;;;;;7383924;19;20019;-77
2022/05/23 01:14:58;;;;;;;1.73;0.77;;;;;;;;;;7390685;19;20036;-77
2022/05/23 01:17:25;;;;;;;0.68;0.63;;;;;;;;;;7389344;19;20021;-77
2022/05/23 01:19:50;;;;;;;2.10;0.98;;;;;;;;;;7385702;19;20003;-76
2022/05/23 01:22:27;;;;;;;3.25;1.17;;;;;;;;;;7386169;19;20012;-77
2022/05/23 01:25:05;;;;;;;1.02;0.70;;;;;;;;;;7387818;19;20006;-77
2022/05/23 01:27:31;;;;;;;0.82;0.70;;;;;;;;;;7384660;19;20540;-77
2022/05/23 01:29:57;;;;;;;0.82;0.68;;;;;;;;;;7387308;19;20486;-77
2022/05/23 01:32:22;;;;;;;1.05;0.63;;;;;;;;;;7384631;19;20013;-77
2022/05/23 01:34:48;;;;;;;3.55;0.70;;;;;;;;;;7387515;19;20026;-77
2022/05/23 01:37:13;;;;;;;1.15;0.90;;;;;;;;;;7385761;19;20010;-77
2022/05/23 01:39:38;;;;;;;1.27;0.80;;;;;;;;;;7388061;19;20014;-77
2022/05/23 01:42:05;;;;;;;1.15;0.73;;;;;;;;;;7382986;19;20017;-78
2022/05/23 01:44:32;;;;;;;1.48;0.60;;;;;;;;;;7386697;19;20011;-77
2022/05/23 01:46:57;;;;;;;0.63;0.60;;;;;;;;;;7385031;19;20329;-77
2022/05/23 01:49:22;;;;;;;1.95;0.88;;;;;;;;;;7386665;19;20003;-77
2022/05/23 01:51:48;;;;;;;1.02;0.98;;;;;;;;;;7383950;19;20003;-77
2022/05/23 01:54:13;;;;;;;1.52;0.70;;;;;;;;;;7385465;19;20006;-77
2022/05/23 01:56:39;;;;;;;1.17;0.63;;;;;;;;;;7385909;19;20111;-78
2022/05/23 02:01:48;;;;;;;0.82;0.65;;;;;;;;;;7385001;19;20371;-77
2022/05/23 02:04:13;;;;;;;0.75;0.60;;;;;;;;;;7386265;19;20462;-75
2022/05/23 02:06:38;;;;;;;1.33;0.73;;;;;;;;;;7387956;19;20043;-77
2022/05/23 02:09:04;;;;;;;2.65;0.75;;;;;;;;;;7395126;19;20003;-78
2022/05/23 02:11:29;;;;;;;0.80;0.63;;;;;;;;;;7390502;19;20014;-77
2022/05/23 02:13:54;;;;;;;6.15;0.80;;;;;;;;;;7390309;19;20743;-78
2022/05/23 02:16:23;;;;;;;2.92;0.93;;;;;;;;;;7393363;19;20624;-78
2022/05/23 02:18:48;;;;;;;3.65;0.82;;;;;;;;;;7393760;19;20014;-77
2022/05/23 02:21:14;;;;;;;1.02;0.70;;;;;;;;;;7389811;19;20045;-77
2022/05/23 02:23:39;;;;;;;0.82;0.70;;;;;;;;;;7395359;19;20032;-77
2022/05/23 02:26:05;;;;;;;0.63;0.55;;;;;;;;;;7390122;19;20924;-78
2022/05/23 02:28:30;;;;;;;1.75;0.70;;;;;;;;;;7393148;19;20474;-78
2022/05/23 02:30:55;;;;;;;2.35;0.73;;;;;;;;;;7390498;19;20703;-77
2022/05/23 02:33:21;;;;;;;4.80;0.77;;;;;;;;;;7392456;19;20007;-77
2022/05/23 02:35:46;;;;;;;3.72;0.75;;;;;;;;;;7391929;19;20359;-77
2022/05/23 02:38:12;;;;;;;2.78;1.75;;;;;;;;;;7394237;19;20032;-76
2022/05/23 02:40:37;;;;;;;1.42;1.20;;;;;;;;;;7392738;19;20478;-77
2022/05/23 02:43:02;;;;;;;3.85;0.80;;;;;;;;;;7390048;19;20032;-77
2022/05/23 02:45:27;;;;;;;0.85;0.57;;;;;;;;;;7390915;19;20517;-77
2022/05/23 02:47:53;;;;;;;0.50;0.50;;;;;;;;;;7391830;19;20054;-77
2022/05/23 02:50:18;;;;;;;3.05;0.73;;;;;;;;;;7391691;19;20114;-77
2022/05/23 02:52:44;;;;;;;1.45;0.85;;;;;;;;;;7390982;19;20003;-77
2022/05/23 02:55:10;;;;;;;1.58;0.70;;;;;;;;;;7393017;19;20316;-77
2022/05/23 02:57:36;;;;;;;1.33;0.75;;;;;;;;;;7392637;19;20021;-77
2022/05/23 03:00:07;;;;;;;1.13;0.88;;;;;;;;;;7391534;19;20030;-78
2022/05/23 03:05:16;;;;;;;1.90;0.70;;;;;;;;;;7389504;19;20023;-77
2022/05/23 03:07:41;;;;;;;2.17;0.90;;;;;;;;;;7392163;19;20003;-78
2022/05/23 03:10:06;;;;;;;3.50;1.05;;;;;;;;;;7390598;19;20019;-78
2022/05/23 03:12:34;;;;;;;1.50;0.85;;;;;;;;;;7388981;19;20498;-77
2022/05/23 03:14:59;;;;;;;1.70;1.00;;;;;;;;;;7390878;19;20006;-78
2022/05/23 03:17:24;;;;;;;2.08;0.93;;;;;;;;;;7388420;19;20303;-77
2022/05/23 03:19:50;;;;;;;7.32;3.25;;;;;;;;;;7391664;19;20007;-78
2022/05/23 03:27:43;;;;;;;1.63;1.00;;;;;;;;;;7392713;19;20421;-77
2022/05/23 03:30:09;;;;;;;2.42;0.98;;;;;;;;;;7392232;19;20010;-78
2022/05/23 03:32:35;;;;;;;5.40;1.15;;;;;;;;;;7386323;19;20034;-78
2022/05/23 03:35:01;;;;;;;2.25;0.90;;;;;;;;;;7391944;19;20006;-78
2022/05/23 03:37:26;;;;;;;1.95;0.98;;;;;;;;;;7390124;19;20006;-78
2022/05/23 03:39:51;;;;;;;2.20;0.80;;;;;;;;;;7391528;19;20014;-77
2022/05/23 03:42:17;;;;;;;1.77;0.85;;;;;;;;;;7388268;19;20037;-78
2022/05/23 03:44:43;;;;;;;1.98;0.90;;;;;;;;;;7391262;19;20127;-77
2022/05/23 03:47:08;;;;;;;4.43;1.20;;;;;;;;;;7390206;19;20014;-77
2022/05/23 03:49:33;;;;;;;2.17;0.70;;;;;;;;;;7390728;19;20006;-77
2022/05/23 03:51:59;;;;;;;1.50;0.88;;;;;;;;;;7384484;19;20018;-78
2022/05/23 03:54:25;;;;;;;1.20;0.95;;;;;;;;;;7384729;19;20117;-77
2022/05/23 03:56:50;;;;;;;1.35;0.90;;;;;;;;;;7383317;19;20003;-79
2022/05/23 03:59:15;;;;;;;3.97;1.00;;;;;;;;;;7390465;19;20002;-77
2022/05/23 04:01:41;;;;;;;2.13;1.13;;;;;;;;;;7388840;19;20018;-78
2022/05/23 04:04:06;;;;;;;2.88;0.93;;;;;;;;;;7390346;19;20039;-78
2022/05/23 04:06:32;;;;;;;0.70;0.70;;;;;;;;;;7388459;19;20014;-79
2022/05/23 04:08:57;;;;;;;1.73;0.70;;;;;;;;;;7388737;19;20003;-78
2022/05/23 04:11:22;;;;;;;4.57;1.30;;;;;;;;;;7386359;19;20015;-79
2022/05/23 04:13:47;;;;;;;3.45;1.05;;;;;;;;;;7392222;19;20089;-78
2022/05/23 04:16:13;;;;;;;0.70;0.70;;;;;;;;;;7388048;19;20041;-79
2022/05/23 04:18:39;;;;;;;4.50;0.98;;;;;;;;;;7391885;19;20477;-78
2022/05/23 04:21:04;;;;;;;2.58;1.00;;;;;;;;;;7388527;19;20015;-78
2022/05/23 04:23:30;;;;;;;1.98;0.70;;;;;;;;;;7389622;19;20006;-77
2022/05/23 04:26:01;;;;;;;2.53;0.98;;;;;;;;;;7389576;19;20021;-77
2022/05/23 04:28:26;;;;;;;3.75;0.80;;;;;;;;;;7389745;19;20045;-78
2022/05/23 04:30:52;;;;;;;1.70;1.00;;;;;;;;;;7385986;19;20473;-78
2022/05/23 04:36:01;;;;;;;5.03;1.20;;;;;;;;;;7389866;19;20025;-77
2022/05/23 04:38:26;;;;;;;1.38;0.82;;;;;;;;;;7390547;19;19998;-77
2022/05/23 04:40:51;;;;;;;0.75;0.75;;;;;;;;;;7389256;19;20040;-79
2022/05/23 04:43:17;;;;;;;2.55;0.98;;;;;;;;;;7387062;19;20028;-78
2022/05/23 04:45:43;;;;;;;0.90;0.70;;;;;;;;;;7389984;19;20010;-76
2022/05/23 04:50:53;;;;;;;1.30;0.90;;;;;;;;;;7391440;19;20096;-78
2022/05/23 04:53:18;;;;;;;0.98;0.80;;;;;;;;;;7394498;19;20353;-77
2022/05/23 04:55:44;;;;;;;1.17;0.80;;;;;;;;;;7393831;19;20035;-78
2022/05/23 04:58:11;;;;;;;0.70;0.70;;;;;;;;;;7393683;19;20100;-77
2022/05/23 05:00:39;;;;;;;1.40;1.00;;;;;;;;;;7393826;19;20014;-77
2022/05/23 05:03:05;;;;;;;2.17;1.25;;;;;;;;;;7392952;19;20010;-77
2022/05/23 05:05:33;;;;;;;1.35;0.80;;;;;;;;;;7393166;19;19995;-77
2022/05/23 05:07:59;;;;;;;1.67;0.90;;;;;;;;;;7391775;19;20029;-77
2022/05/23 05:10:25;;;;;;;1.95;1.05;;;;;;;;;;7392373;19;20010;-78
2022/05/23 05:12:51;;;;;;;2.10;0.90;;;;;;;;;;7388894;19;20057;-77
2022/05/23 05:15:17;;;;;;;2.28;1.10;;;;;;;;;;7390691;19;20010;-77
2022/05/23 05:17:42;;;;;;;2.15;1.20;;;;;;;;;;7394240;19;20014;-77
2022/05/23 05:20:08;;;;;;;1.23;1.10;;;;;;;;;;7391813;19;20354;-78
2022/05/23 05:22:35;;;;;;;1.00;0.88;;;;;;;;;;7390227;19;20032;-77
2022/05/23 05:25:00;;;;;;;2.88;1.50;;;;;;;;;;7389029;19;20074;-77
2022/05/23 05:27:26;;;;;;;2.55;1.10;;;;;;;;;;7388565;19;20011;-77
2022/05/23 05:29:51;;;;;;;2.13;1.10;;;;;;;;;;7389077;19;20458;-77
2022/05/23 05:32:46;;;;;;;1.83;1.10;;;;;;;;;;7385834;19;20113;-77
2022/05/23 05:35:11;;;;;;;2.58;1.00;;;;;;;;;;7385740;19;20002;-76
2022/05/23 05:37:44;;;;;;;3.23;1.00;;;;;;;;;;7389361;19;19994;-77
2022/05/23 05:40:11;;;;;;;4.15;1.05;;;;;;;;;;7384827;19;20319;-78
2022/05/23 05:42:39;;;;;;;4.57;1.08;;;;;;;;;;7394462;19;20401;-76
2022/05/23 05:45:10;;;;;;;1.40;0.80;;;;;;;;;;7394559;19;20031;-77
2022/05/23 05:47:38;;;;;;;2.03;0.95;;;;;;;;;;7393504;19;20043;-77
2022/05/23 05:50:11;;;;;;;0.82;0.80;;;;;;;;;;7395651;19;20036;-78
2022/05/23 05:52:38;;;;;;;2.78;1.20;;;;;;;;;;7393696;19;20426;-77
2022/05/23 05:55:05;;;;;;;2.53;1.05;;;;;;;;;;7400403;19;20034;-78
2022/05/23 05:57:31;;;;;;;2.42;1.08;;;;;;;;;;7404542;19;20009;-79
2022/05/23 05:59:56;;;;;;;1.25;0.77;;;;;;;;;;7404275;19;20026;-79
2022/05/23 06:02:22;;;;;;;2.63;0.95;;;;;;;;;;7401535;19;20011;-78
2022/05/23 06:04:47;;;;;;;3.70;1.10;;;;;;;;;;7403330;19;20320;-78
2022/05/23 06:12:51;;;;;;;1.70;1.15;;;;;;;;;;7400612;19;20009;-78
2022/05/23 06:15:16;;;;;;;2.58;1.10;;;;;;;;;;7402578;19;20327;-77
2022/05/23 06:17:42;;;;;;;0.88;0.80;;;;;;;;;;7403449;19;20041;-78
2022/05/23 06:20:09;;;;;;;1.70;1.20;;;;;;;;;;7399980;19;20006;-78
2022/05/23 06:22:34;;;;;;;0.95;0.80;;;;;;;;;;7400247;19;20014;-78
2022/05/23 06:25:02;;;;;;;1.27;0.95;;;;;;;;;;7403150;19;20030;-78
2022/05/23 06:27:27;;;;;;;1.52;1.05;;;;;;;;;;7402244;19;20006;-79
2022/05/23 06:29:53;;;;;;;1.60;1.00;;;;;;;;;;7404295;19;20010;-79
2022/05/23 06:32:18;;;;;;;1.83;0.90;;;;;;;;;;7397129;19;20036;-78
2022/05/23 06:34:43;;;;;;;1.67;0.85;;;;;;;;;;7403087;19;20090;-79
2022/05/23 06:37:09;;;;;;;4.15;1.08;;;;;;;;;;7403808;19;20005;-78
2022/05/23 06:39:34;;;;;;;1.77;1.00;;;;;;;;;;7401574;19;20348;-79
2022/05/23 06:41:59;;;;;;;4.85;1.00;;;;;;;;;;7397147;19;20017;-80
2022/05/23 06:44:24;;;;;;;3.60;1.35;;;;;;;;;;7399586;19;20102;-76
2022/05/23 06:46:50;;;;;;;2.47;1.13;;;;;;;;;;7393932;19;20443;-75
2022/05/23 06:49:15;;;;;;;1.95;1.23;;;;;;;;;;7400470;19;20006;-76
2022/05/23 06:51:41;;;;;;;2.53;1.17;;;;;;;;;;7395239;19;20012;-79
2022/05/23 06:54:06;;;;;;;1.55;1.10;;;;;;;;;;7396907;19;20032;-78
2022/05/23 06:56:32;;;;;;;2.67;1.08;;;;;;;;;;7395451;19;20018;-80
2022/05/23 06:58:58;;;;;;;1.02;0.80;;;;;;;;;;7398978;19;20349;-79
2022/05/23 07:01:23;;;;;;;2.25;1.00;;;;;;;;;;7396266;19;20078;-80
2022/05/23 07:03:48;;;;;;;1.58;1.00;;;;;;;;;;7396873;19;20482;-81
2022/05/23 07:14:26;;;;;;;2.67;1.17;;;;;;;;;;7401115;19;20024;-78
2022/05/23 07:16:52;;;;;;;3.90;0.90;;;;;;;;;;7409379;19;20024;-77
2022/05/23 07:19:18;;;;;;;1.88;1.00;;;;;;;;;;7408866;19;20030;-78
2022/05/23 07:21:43;;;;;;;3.03;1.00;;;;;;;;;;7395970;19;20521;-79
2022/05/23 07:24:08;;;;;;;2.30;1.25;;;;;;;;;;7403107;19;20030;-79
2022/05/23 07:26:37;;;;;;;2.42;1.20;;;;;;;;;;7398515;19;20115;-78
2022/05/23 07:29:02;;;;;;;2.63;1.20;;;;;;;;;;7396343;19;20481;-83
2022/05/23 07:31:29;;;;;;;3.08;1.35;;;;;;;;;;7400833;19;20018;-81
2022/05/23 07:33:54;;;;;;;2.78;1.00;;;;;;;;;;7396954;19;20002;-78
2022/05/23 07:36:19;;;;;;;3.00;1.38;;;;;;;;;;7396554;19;20035;-79
2022/05/23 07:38:45;;;;;;;1.52;1.30;;;;;;;;;;7402463;19;20021;-77
2022/05/23 07:41:11;;;;;;;2.63;1.20;;;;;;;;;;7396311;19;20150;-79
2022/05/23 07:43:39;;;;;;;4.07;1.40;;;;;;;;;;7395524;19;20522;-78
2022/05/23 07:46:09;;;;;;;4.25;1.33;;;;;;;;;;7383720;19;20014;-78
2022/05/23 07:48:53;;;;;;;2.33;1.52;;;;;;;;;;7391267;19;20097;-78
2022/05/23 07:51:22;;;;;;;2.97;1.38;;;;;;;;;;7391463;19;20049;-78
2022/05/23 08:02:00;;;;;;;3.47;1.10;;;;;;;;;;7386967;19;20027;-78
2022/05/23 08:04:26;;;;;;;4.53;1.40;;;;;;;;;;7390494;19;20023;-78
2022/05/23 08:06:52;;;;;;;3.83;1.20;;;;;;;;;;7389941;19;20003;-78
2022/05/23 08:09:19;;;;;;;6.55;1.70;;;;;;;;;;7390134;19;20329;-78
2022/05/23 08:11:49;;;;;;;4.25;1.30;;;;;;;;;;7387330;19;20010;-78
2022/05/23 08:14:15;;;;;;;6.10;1.40;;;;;;;;;;7391908;19;20010;-78
2022/05/23 08:16:41;;;;;;;2.80;1.50;;;;;;;;;;7389414;19;20027;-78
2022/05/23 08:19:07;;;;;;;3.65;1.20;;;;;;;;;;7390493;19;20022;-78
2022/05/23 08:21:33;;;;;;;1.88;1.30;;;;;;;;;;7389441;19;20010;-78
2022/05/23 08:23:59;;;;;;;2.88;1.50;;;;;;;;;;7393503;19;20014;-79
2022/05/23 08:26:25;;;;;;;1.90;1.35;;;;;;;;;;7397303;19;20347;-79
2022/05/23 08:28:51;;;;;;;3.30;1.50;;;;;;;;;;7400024;19;20009;-77
2022/05/23 08:31:17;;;;;;;1.75;1.10;;;;;;;;;;7398391;19;20068;-78
2022/05/23 08:33:43;;;;;;;3.22;1.50;;;;;;;;;;7396561;19;20014;-78
2022/05/23 08:36:10;;;;;;;4.72;1.60;;;;;;;;;;7397476;19;20014;-79
2022/05/23 08:38:35;;;;;;;2.08;1.30;;;;;;;;;;7399748;19;20032;-78
2022/05/23 08:41:15;;;;;;;3.30;1.42;;;;;;;;;;7399412;19;20526;-79
2022/05/23 08:44:06;;;;;;;1.65;1.23;;;;;;;;;;7399900;19;20017;-82
2022/05/23 08:46:43;;;;;;;1.55;1.30;;;;;;;;;;7393248;19;20790;-81
2022/05/23 08:49:21;;;;;;;1.55;1.10;;;;;;;;;;7394877;19;20015;-78
2022/05/23 08:51:58;;;;;;;2.35;1.10;;;;;;;;;;7391236;19;20508;-78
2022/05/23 08:54:35;;;;;;;2.08;1.10;;;;;;;;;;7394793;19;20035;-80
2022/05/23 08:57:03;;;;;;;1.65;1.10;;;;;;;;;;7394364;19;20050;-78
2022/05/23 08:59:35;;;;;;;4.80;1.38;;;;;;;;;;7395789;19;20032;-78
2022/05/23 09:02:11;;;;;;;2.55;1.10;;;;;;;;;;7393995;19;20035;-77
2022/05/23 09:04:52;;;;;;;6.65;1.30;;;;;;;;;;7392923;19;20017;-78
2022/05/23 09:07:31;;;;;;;2.00;1.20;;;;;;;;;;7394674;19;20070;-77
2022/05/23 09:09:59;;;;;;;2.28;1.00;;;;;;;;;;7392875;19;20036;-77
2022/05/23 09:12:25;;;;;;;3.72;1.25;;;;;;;;;;7388884;19;20010;-78
2022/05/23 09:14:50;;;;;;;1.33;0.85;;;;;;;;;;7392561;19;20019;-77
2022/05/23 09:17:22;;;;;;;4.85;1.25;;;;;;;;;;7394762;19;20088;-78
2022/05/23 09:20:02;;;;;;;3.00;0.90;;;;;;;;;;7393838;19;20486;-78
2022/05/23 09:22:36;;;;;;;1.85;1.08;;;;;;;;;;7389829;19;20028;-78
2022/05/23 09:25:04;;;;;;;7.55;1.40;;;;;;;;;;7392843;19;20476;-78
2022/05/23 09:27:38;;;;;;;2.33;1.38;;;;;;;;;;7390791;19;20014;-79
2022/05/23 09:30:10;;;;;;;2.47;0.90;;;;;;;;;;7396296;19;20113;-79
2022/05/23 09:32:51;;;;;;;3.30;1.30;;;;;;;;;;7390389;19;20002;-79
2022/05/23 09:35:42;;;;;;;1.98;1.13;;;;;;;;;;7394893;19;20334;-79
2022/05/23 09:38:20;;;;;;;3.45;1.23;;;;;;;;;;7391551;19;20035;-79
2022/05/23 09:40:46;;;;;;;5.43;0.98;;;;;;;;;;7391367;19;20010;-78
2022/05/23 09:49:21;;;;;;;2.03;0.93;;;;;;;;;;7394963;19;20501;-78
2022/05/23 09:51:54;;;;;;;2.65;1.10;;;;;;;;;;7391780;19;20007;-79
2022/05/23 09:54:46;;;;;;;1.90;0.82;;;;;;;;;;7390052;19;20057;-78
2022/05/23 09:57:26;;;;;;;2.08;1.20;;;;;;;;;;7390622;19;19999;-78
2022/05/23 10:00:00;;;;;;;1.27;0.80;;;;;;;;;;7392782;19;20006;-79
2022/05/23 10:02:35;;;;;;;1.17;0.80;;;;;;;;;;7391322;19;20032;-78
2022/05/23 10:05:03;;;;;;;1.63;0.85;;;;;;;;;;7394184;19;20043;-79
2022/05/23 10:07:33;;;;;;;2.08;0.93;;;;;;;;;;7387955;19;20010;-79
2022/05/23 10:10:02;;;;;;;2.47;1.00;;;;;;;;;;7389127;19;20014;-78
2022/05/23 10:12:28;;;;;;;4.55;0.88;;;;;;;;;;7387229;19;20067;-78
2022/05/23 10:15:17;;;;;;;2.60;0.90;;;;;;;;;;7390324;19;20039;-78
2022/05/23 10:17:43;;;;;;;2.33;0.90;;;;;;;;;;7391807;19;20003;-79
2022/05/23 10:20:23;;;;;;;4.13;1.08;;;;;;;;;;7390863;19;20030;-77
2022/05/23 10:22:59;;;;;;;2.30;0.80;;;;;;;;;;7389387;19;20513;-78
2022/05/23 10:25:30;;;;;;;5.22;1.02;;;;;;;;;;7392376;19;20039;-79
2022/05/23 10:28:05;;;;;;;2.47;1.02;;;;;;;;;;7396297;19;20007;-78
2022/05/23 10:30:34;;;;;;;2.50;1.20;;;;;;;;;;7399820;19;20010;-78
2022/05/23 10:33:05;;;;;;;2.90;1.08;;;;;;;;;;7397146;19;20018;-78
2022/05/23 10:35:44;;;;;;;3.75;0.98;;;;;;;;;;7398157;19;20010;-78
2022/05/23 10:44:08;;;;;;;3.05;1.00;;;;;;;;;;7392560;19;20017;-77
2022/05/23 10:46:36;;;;;;;3.30;1.10;;;;;;;;;;7390454;19;20015;-75
2022/05/23 10:49:45;;;;;;;4.75;1.00;;;;;;;;;;7394436;19;20477;-76
2022/05/23 10:52:35;;;;;;;5.60;1.30;;;;;;;;;;7389136;19;20035;-77
2022/05/23 10:55:14;;;;;;;6.32;0.85;;;;;;;;;;7393927;19;20010;-75
2022/05/23 10:57:59;;;;;;;5.25;1.35;;;;;;;;;;7395375;19;20082;-76
2022/05/23 11:00:36;;;;;;;2.83;1.10;;;;;;;;;;7390509;19;20014;-76
2022/05/23 11:03:12;;;;;;;3.22;1.20;;;;;;;;;;7389415;19;20006;-75
2022/05/23 11:05:55;;;;;;;3.38;1.02;;;;;;;;;;7391271;19;20031;-75
2022/05/23 11:08:35;;;;;;;2.97;1.00;;;;;;;;;;7393277;19;20466;-75
2022/05/23 11:11:10;;;;;;;3.58;1.23;;;;;;;;;;7392207;19;20019;-76
2022/05/23 11:14:08;;;;;;;3.90;1.30;;;;;;;;;;7392888;19;20011;-75
2022/05/23 11:16:39;;;;;;;2.42;1.00;;;;;;;;;;7392189;19;20018;-75
2022/05/23 11:19:23;;;;;;;1.80;0.98;;;;;;;;;;7391913;19;20002;-77
2022/05/23 11:22:09;;;;;;;2.20;1.10;;;;;;;;;;7391130;19;20032;-75
2022/05/23 11:24:41;;;;;;;2.85;0.88;;;;;;;;;;7393989;19;20009;-75
2022/05/23 11:35:52;;;;;;;4.22;1.20;;;;;;;;;;7393528;19;20536;-74
2022/05/23 11:38:19;;;;;;;2.90;0.88;;;;;;;;;;7390524;19;20010;-74
2022/05/23 11:40:53;;;;;;;3.63;0.90;;;;;;;;;;7391732;19;20014;-75
2022/05/23 11:43:23;;;;;;;3.03;0.82;;;;;;;;;;7391765;19;20059;-75
2022/05/23 11:46:02;;;;;;;3.90;1.05;;;;;;;;;;7391209;19;20006;-74
2022/05/23 11:48:41;;;;;;;3.15;1.05;;;;;;;;;;7393492;19;20003;-76
2022/05/23 11:51:12;;;;;;;2.95;1.10;;;;;;;;;;7390092;19;20035;-76
2022/05/23 11:53:56;;;;;;;4.55;1.00;;;;;;;;;;7390025;19;20011;-75
2022/05/23 11:56:35;;;;;;;2.53;0.90;;;;;;;;;;7390903;19;20007;-75
2022/05/23 11:59:01;;;;;;;3.22;1.00;;;;;;;;;;7391369;19;20025;-75
2022/05/23 12:01:29;;;;;;;1.77;1.00;;;;;;;;;;7387359;19;20002;-74
2022/05/23 12:03:58;;;;;;;3.80;1.10;;;;;;;;;;7391451;19;20018;-75
2022/05/23 12:06:24;;;;;;;2.05;1.00;;;;;;;;;;7388904;19;20122;-75
2022/05/23 12:08:58;;;;;;;1.43;0.90;;;;;;;;;;7389164;19;20022;-79
2022/05/23 12:11:26;;;;;;;3.90;0.90;;;;;;;;;;7390509;19;20078;-75
2022/05/23 12:13:58;;;;;;;2.50;0.90;;;;;;;;;;7389487;19;20017;-76
2022/05/23 12:16:32;;;;;;;4.82;1.17;;;;;;;;;;7390865;19;20039;-75
2022/05/23 12:19:19;;;;;;;3.90;0.93;;;;;;;;;;7390464;19;20624;-76
2022/05/23 12:21:46;;;;;;;3.42;1.10;;;;;;;;;;7386013;19;20010;-76
2022/05/23 12:24:28;;;;;;;4.03;1.15;;;;;;;;;;7389477;19;20014;-75
2022/05/23 12:26:57;;;;;;;3.45;1.05;;;;;;;;;;7387842;19;20352;-75
2022/05/23 12:29:32;;;;;;;3.67;1.23;;;;;;;;;;7390893;19;20311;-76
2022/05/23 12:32:16;;;;;;;2.85;1.00;;;;;;;;;;7387484;19;20421;-75
2022/05/23 12:34:44;;;;;;;3.35;1.10;;;;;;;;;;7389054;19;20015;-76
2022/05/23 12:37:32;;;;;;;5.28;1.23;;;;;;;;;;7388030;19;20515;-75
2022/05/23 12:40:08;;;;;;;3.85;1.30;;;;;;;;;;7388827;19;20042;-74
2022/05/23 12:42:55;;;;;;;10.57;1.05;;;;;;;;;;7386577;19;20381;-76
2022/05/23 12:45:32;;;;;;;3.75;1.20;;;;;;;;;;7386281;19;20014;-76
2022/05/23 12:48:08;;;;;;;1.75;1.00;;;;;;;;;;7389761;19;20017;-76
2022/05/23 12:50:54;;;;;;;3.80;1.10;;;;;;;;;;7385573;19;20015;-76
2022/05/23 12:53:25;;;;;;;4.97;1.00;;;;;;;;;;7392432;19;20131;-76
2022/05/23 12:56:24;;;;;;;6.88;1.00;;;;;;;;;;7392071;19;20031;-75
2022/05/23 12:59:14;;;;;;;1.35;0.80;;;;;;;;;;7392224;19;20018;-75
2022/05/23 13:01:43;;;;;;;1.73;1.17;;;;;;;;;;7387699;19;20014;-75
2022/05/23 13:04:17;;;;;;;4.25;1.15;;;;;;;;;;7390276;19;20404;-75
2022/05/23 13:06:58;;;;;;;6.03;1.15;;;;;;;;;;7391855;19;20031;-75
2022/05/23 13:09:44;;;;;;;2.40;1.02;;;;;;;;;;7392354;19;20037;-75
2022/05/23 13:12:17;;;;;;;4.10;1.00;;;;;;;;;;7389823;19;20011;-75
2022/05/23 13:14:53;;;;;;;6.50;1.10;;;;;;;;;;7391835;19;20006;-75
2022/05/23 13:17:38;;;;;;;3.55;1.25;;;;;;;;;;7392669;19;20049;-75
2022/05/23 13:23:01;;;;;;;2.28;0.95;;;;;;;;;;7391287;19;20465;-75
2022/05/23 13:25:28;;;;;;;2.92;1.30;;;;;;;;;;7390926;19;20029;-75
2022/05/23 13:27:58;;;;;;;4.28;1.15;;;;;;;;;;7390626;19;20472;-75
2022/05/23 13:30:36;;;;;;;2.55;1.00;;;;;;;;;;7387487;19;20509;-77
2022/05/23 13:33:14;;;;;;;7.00;1.30;;;;;;;;;;7388880;19;20002;-76
2022/05/23 13:35:41;;;;;;;4.40;0.95;;;;;;;;;;7389041;19;20178;-76
2022/05/23 13:38:13;;;;;;;7.07;1.15;;;;;;;;;;7388958;19;20010;-76
2022/05/23 13:40:42;;;;;;;3.30;1.38;;;;;;;;;;7387654;19;20021;-75
2022/05/23 13:43:10;;;;;;;1.90;1.10;;;;;;;;;;7385044;19;20022;-75
2022/05/23 13:45:35;;;;;;;5.90;1.38;;;;;;;;;;7385531;19;20028;-75
2022/05/23 13:48:11;;;;;;;5.72;1.15;;;;;;;;;;7386806;19;20478;-76
2022/05/23 13:50:45;;;;;;;3.65;1.00;;;;;;;;;;7386910;19;20042;-75
2022/05/23 13:53:16;;;;;;;10.15;1.50;;;;;;;;;;7384271;19;20046;-75
2022/05/23 13:55:46;;;;;;;5.22;1.42;;;;;;;;;;7388923;19;20315;-75
2022/05/23 13:58:16;;;;;;;3.08;1.10;;;;;;;;;;7386802;19;20082;-74
2022/05/23 14:00:47;;;;;;;3.95;1.25;;;;;;;;;;7386147;19;20014;-75
2022/05/23 14:03:21;;;;;;;3.45;1.38;;;;;;;;;;7392443;19;20006;-75
2022/05/23 14:05:52;;;;;;;13.30;1.55;;;;;;;;;;7392272;19;20011;-74
2022/05/23 14:08:33;;;;;;;4.07;1.30;;;;;;;;;;7394196;19;20018;-77
2022/05/23 14:11:18;;;;;;;2.25;1.15;;;;;;;;;;7392175;19;20035;-78
2022/05/23 14:13:44;;;;;;;6.30;1.27;;;;;;;;;;7393771;19;20084;-77
2022/05/23 14:16:15;;;;;;;2.47;1.10;;;;;;;;;;7394544;19;20019;-77
2022/05/23 14:18:41;;;;;;;1.83;1.25;;;;;;;;;;7390817;19;20013;-76
2022/05/23 14:21:36;;;;;;;3.90;1.30;;;;;;;;;;7390990;19;20018;-77
2022/05/23 14:24:14;;;;;;;3.17;1.10;;;;;;;;;;7394830;19;20017;-76
2022/05/23 14:26:39;;;;;;;6.55;1.40;;;;;;;;;;7391096;19;20010;-76
2022/05/23 14:29:12;;;;;;;3.97;1.40;;;;;;;;;;7393510;19;20006;-76
2022/05/23 14:31:46;;;;;;;3.33;1.10;;;;;;;;;;7390769;19;20019;-77
2022/05/23 14:34:28;;;;;;;4.13;1.33;;;;;;;;;;7392365;19;20002;-77
2022/05/23 14:36:57;;;;;;;8.80;2.10;;;;;;;;;;7388075;19;20017;-77
2022/05/23 14:39:31;;;;;;;3.75;1.40;;;;;;;;;;7394589;19;20335;-77
2022/05/23 14:42:19;;;;;;;2.88;1.10;;;;;;;;;;7390803;19;20148;-78
2022/05/23 14:44:44;;;;;;;3.30;1.25;;;;;;;;;;7395936;19;20057;-77
2022/05/23 14:47:13;;;;;;;3.28;1.50;;;;;;;;;;7391643;19;20477;-76
2022/05/23 14:49:41;;;;;;;3.67;1.40;;;;;;;;;;7393599;19;20066;-78
2022/05/23 14:52:18;;;;;;;9.27;1.38;;;;;;;;;;7390885;19;20043;-77
2022/05/23 15:00:38;;;;;;;2.88;1.10;;;;;;;;;;7394177;19;20036;-77
2022/05/23 15:03:09;;;;;;;5.95;1.67;;;;;;;;;;7383565;19;20018;-77
2022/05/23 15:05:34;;;;;;;4.32;1.40;;;;;;;;;;7388779;19;20185;-76
2022/05/23 15:08:02;;;;;;;2.75;1.08;;;;;;;;;;7391652;19;20087;-77
2022/05/23 15:10:32;;;;;;;4.40;1.15;;;;;;;;;;7387219;19;20342;-77
2022/05/23 15:12:58;;;;;;;3.83;1.20;;;;;;;;;;7384626;19;20018;-76
2022/05/23 15:15:23;;;;;;;2.70;1.30;;;;;;;;;;7391516;19;19999;-76
2022/05/23 15:17:49;;;;;;;5.40;1.83;;;;;;;;;;7389809;19;20451;-76
2022/05/23 15:20:14;;;;;;;2.22;1.10;;;;;;;;;;7387520;19;20323;-77
2022/05/23 15:22:41;;;;;;;4.60;1.40;;;;;;;;;;7387432;19;20007;-78
2022/05/23 15:25:09;;;;;;;6.82;1.20;;;;;;;;;;7390455;19;20465;-76
2022/05/23 15:27:35;;;;;;;3.38;1.20;;;;;;;;;;7387253;19;20120;-78
2022/05/23 15:30:05;;;;;;;2.28;1.25;;;;;;;;;;7391402;19;20009;-77
2022/05/23 15:32:30;;;;;;;3.47;1.15;;;;;;;;;;7385463;19;20007;-76
2022/05/23 15:34:56;;;;;;;1.73;1.08;;;;;;;;;;7384879;19;20392;-77
2022/05/23 15:37:21;;;;;;;2.63;1.17;;;;;;;;;;7387971;19;20006;-76
2022/05/23 15:39:46;;;;;;;2.22;1.00;;;;;;;;;;7390620;19;19999;-77
2022/05/23 15:42:25;;;;;;;3.50;1.30;;;;;;;;;;7384726;19;20038;-77
2022/05/23 15:44:51;;;;;;;3.30;1.23;;;;;;;;;;7388412;19;20443;-77
2022/05/23 15:47:23;;;;;;;3.35;1.13;;;;;;;;;;7385446;19;20030;-76
2022/05/23 15:49:48;;;;;;;3.92;1.33;;;;;;;;;;7389151;19;20018;-77
2022/05/23 15:52:13;;;;;;;3.45;1.30;;;;;;;;;;7385121;19;20035;-76
2022/05/23 15:54:39;;;;;;;3.10;1.02;;;;;;;;;;7388477;19;20014;-77
2022/05/23 15:57:05;;;;;;;3.65;1.42;;;;;;;;;;7387764;19;20018;-76
2022/05/23 15:59:30;;;;;;;2.97;1.40;;;;;;;;;;7386418;19;20427;-77
2022/05/23 16:01:56;;;;;;;3.13;1.20;;;;;;;;;;7385578;19;20022;-77
2022/05/23 16:04:22;;;;;;;3.38;1.10;;;;;;;;;;7388147;19;20018;-77
2022/05/23 16:06:47;;;;;;;4.85;1.25;;;;;;;;;;7386010;19;20010;-76
2022/05/23 16:09:13;;;;;;;8.23;1.40;;;;;;;;;;7389763;19;20518;-79
2022/05/23 16:11:43;;;;;;;3.72;1.30;;;;;;;;;;7387417;19;20060;-76
2022/05/23 16:14:13;;;;;;;2.92;1.08;;;;;;;;;;7389580;19;20040;-75